Station: Warrnambool  

  Atmospheric Gas Attenuation - ITU Rec 676-11   ----------------- dB/100km -----------------
Date Time Temp RH % AH g/m3 Dew Point Wind Direction Speed kph Gust kph Barometer mB Rainfall Since 9am 24GHz 47GHz 76GHz 122GHz 134GHz 241GHz
08/05 12:30 14.8 83 10.51 11.9 32 41 1025.9 0.2 23.6 29.3 47.8 125.5 124.1 428.5
08/05 12:20 15.1 91 11.74 13.6 28 35 1025.9 0.2 26.2 31.3 52.9 139.3 141.2 488.2
08/05 12:10 13.6 90 10.59 12 30 32 1026 0.2 23.8 29.8 48.9 128.4 127.3 439.2
08/05 12:00 14.8 88 11.15 12.8 32 44 1026.1 0.2 25.0 30.4 50.5 132.9 133.2 460.3
08/05 11:50 14.3 92 11.3 13 26 30 1026.2 0.2 25.3 30.8 51.5 135.6 136.3 470.9
08/05 11:40 13.6 92 10.83 12.3 28 39 1026.2 0.2 24.4 30.2 49.9 131.2 130.7 451.3
08/05 11:30 13.8 86 10.25 11.5 37 50 1026.2 0.2 23.1 29.2 47.3 124.2 122.1 421.3
08/05 11:20 14.4 89 11 12.6 28 33 1026 0.2 24.7 30.3 50.1 131.9 131.8 455.1
08/05 11:10 13.8 89 10.6 12 28 32 1026 0.2 23.9 29.8 48.8 128.2 127.1 438.6
08/05 11:00 13.8 90 10.72 12.2 28 37 1026 0.2 24.1 30.0 49.3 129.6 128.8 444.6
08/05 10:50 13.5 90 10.53 11.9 30 33 1026 0.2 23.7 29.7 48.7 127.9 126.6 436.8
08/05 10:40 13.4 89 10.35 11.6 33 39 1025.8 0.2 23.3 29.4 47.9 125.9 124.1 428.3
08/05 10:30 13.3 91 10.51 11.9 30 39 1025.9 0.2 23.7 29.8 48.7 128.0 126.6 436.9
08/05 10:20 13.7 87 10.3 11.6 35 39 1025.6 0.2 23.2 29.3 47.5 124.9 122.9 424.1
08/05 10:10 13.8 89 10.6 12 24 28 1025.5 0.2 23.9 29.7 48.7 128.1 127.0 438.4
08/05 10:00 13.9 89 10.67 12.1 30 39 1025.6 0.2 24.0 29.8 49.0 128.8 127.9 441.4
08/05 09:50 13.7 93 11.01 12.6 24 26 1025.2 0.2 24.7 30.5 50.6 133.1 133.1 459.5
08/05 09:40 13 94 10.66 12.1 24 28 1025.1 0.2 24.0 30.1 49.5 130.1 129.2 445.9
08/05 09:30 12.5 94 10.34 11.6 32 43 1025.1 0.2 23.4 29.7 48.4 127.2 125.4 432.6
08/05 09:20 12.6 93 10.29 11.5 32 35 1025 0.2 23.3 29.6 48.1 126.5 124.5 429.5
08/05 09:10 13.1 93 10.61 12 24 30 1024.8 0.2 23.9 30.0 49.2 129.3 128.3 442.7
08/05 09:00 12.7 92 10.24 11.4 30 43 1025 0 23.1 29.5 47.8 125.7 123.6 426.4
08/05 08:50 12.6 92 10.18 11.3 28 32 1024.8 3.8 23.0 29.4 47.6 125.1 122.9 423.9
08/05 08:40 13 92 10.43 11.7 30 37 1024.7 3.8 23.5 29.7 48.5 127.4 125.8 434.2
08/05 08:30 12.6 92 10.18 11.3 32 48 1024.8 3.8 23.0 29.4 47.6 125.1 122.9 423.9
08/05 08:20 12.9 92 10.37 11.6 28 35 1024.6 3.8 23.4 29.6 48.3 126.8 125.1 431.7
08/05 08:10 12.5 92 10.12 11.2 33 39 1024.5 3.8 22.9 29.3 47.4 124.6 122.2 421.3
08/05 08:00 12.4 94 10.27 11.5 30 46 1024.5 3.8 23.2 29.6 48.1 126.5 124.5 429.4
08/05 07:50 12.1 94 10.08 11.2 33 35 1024.2 3.8 22.8 29.3 47.5 124.7 122.2 421.4
08/05 07:40 12.4 94 10.27 11.5 43 50 1024.2 3.8 23.2 29.6 48.1 126.5 124.5 429.3
08/05 07:30 12.3 94 10.21 11.4 37 52 1024.1 3.6 23.1 29.5 47.9 125.9 123.8 426.8
08/05 07:20 12.3 95 10.32 11.5 30 33 1023.8 3.6 23.3 29.7 48.4 127.2 125.3 432.3
08/05 07:10 12.1 94 10.08 11.2 35 39 1023.7 3.6 22.8 29.3 47.4 124.7 122.2 421.3
08/05 07:00 12.5 94 10.34 11.6 33 57 1023.7 3.6 23.4 29.7 48.3 127.0 125.3 432.1
08/05 06:50 12.2 94 10.14 11.3 30 39 1023.5 3.4 23.0 29.4 47.6 125.2 122.8 423.7
08/05 06:40 12.3 94 10.21 11.4 30 37 1023.4 3.4 23.1 29.5 47.9 125.8 123.7 426.6
08/05 06:30 12.5 93 10.23 11.4 30 39 1023.4 3.2 23.1 29.4 47.8 125.7 123.6 426.5
08/05 06:20 12.3 93 10.1 11.2 35 39 1023.2 3.2 22.9 29.3 47.4 124.5 122.1 421.0
08/05 06:10 12.3 93 10.1 11.2 30 39 1023.3 3.2 22.9 29.3 47.4 124.5 122.1 421.0
08/05 06:00 12.2 94 10.14 11.3 33 44 1023.2 3.2 23.0 29.4 47.6 125.1 122.8 423.6
08/05 05:50 12.4 94 10.27 11.5 35 39 1023 3.2 23.2 29.5 48.1 126.3 124.3 428.9
08/05 05:40 12.3 93 10.1 11.2 33 37 1023 3.2 22.9 29.3 47.4 124.5 122.1 420.9
08/05 05:30 12.4 91 9.94 11 35 44 1023 3 22.5 29.0 46.6 122.5 119.6 412.4
08/05 05:20 12.5 90 9.9 10.9 43 46 1022.8 3 22.4 28.8 46.4 121.8 118.9 409.8
08/05 05:10 12.4 92 10.05 11.1 32 43 1022.8 3 22.8 29.1 47.1 123.7 121.2 417.8
08/05 05:00 12.2 92 9.93 10.9 43 59 1022.7 3 22.5 29.0 46.7 122.6 119.8 412.9
08/05 04:50 12.6 90 9.96 11 35 50 1022.5 3 22.6 28.9 46.6 122.3 119.5 412.2
08/05 04:40 12.3 92 9.99 11 39 44 1022.4 3 22.6 29.1 46.9 123.1 120.4 415.2
08/05 04:30 12.5 91 10.01 11.1 37 50 1022.5 2.8 22.7 29.0 46.8 123.1 120.4 415.2
08/05 04:20 12.2 92 9.93 10.9 35 54 1022.3 2.8 22.5 29.0 46.7 122.6 119.7 412.8
08/05 04:10 12.1 92 9.87 10.8 41 48 1022.1 2.8 22.4 28.9 46.4 122.0 119.0 410.2
08/05 04:00 12.3 91 9.88 10.9 35 46 1022.2 2.8 22.4 28.9 46.4 121.8 118.8 409.7
08/05 03:50 12.1 92 9.87 10.8 41 48 1022.2 2.6 22.4 28.9 46.4 122.0 119.0 410.3
08/05 03:40 12.3 92 9.99 11 35 43 1022.2 2.6 22.6 29.0 46.8 123.1 120.4 415.2
08/05 03:30 12.2 91 9.82 10.8 41 57 1022.3 2.6 22.3 28.8 46.2 121.3 118.2 407.3
08/05 03:20 12.5 88 9.68 10.6 35 43 1022.2 2.6 22.0 28.4 45.4 119.2 115.7 398.8
08/05 03:10 12.3 89 9.67 10.5 39 43 1022.1 2.6 21.9 28.5 45.5 119.4 115.9 399.3
08/05 03:00 12.4 91 9.94 11 35 44 1022.2 2.6 22.5 28.9 46.6 122.4 119.5 412.2
08/05 02:50 12.2 92 9.93 10.9 33 41 1022.3 2.4 22.5 29.0 46.7 122.6 119.7 412.8
08/05 02:40 12.4 92 10.05 11.1 39 48 1022.3 2.4 22.8 29.1 47.1 123.7 121.1 417.7
08/05 02:30 12.4 90 9.83 10.8 39 50 1022.4 2.4 22.3 28.7 46.1 121.1 118.0 406.8
08/05 02:20 12.6 88 9.74 10.7 35 43 1022.3 2.4 22.1 28.5 45.6 119.8 116.4 401.3
08/05 02:10 12.7 88 9.8 10.8 35 41 1022.4 2.4 22.2 28.6 45.8 120.3 117.1 403.7
08/05 02:00 12.6 89 9.85 10.8 39 54 1022.6 2.4 22.3 28.7 46.1 121.1 118.0 406.8
08/05 01:50 12.4 91 9.94 11 39 46 1022.5 2.4 22.5 28.9 46.6 122.4 119.6 412.3
08/05 01:40 12.6 92 10.18 11.3 30 35 1022.6 2.4 23.0 29.3 47.5 124.9 122.7 423.2
08/05 01:30 12.6 91 10.07 11.2 32 46 1022.9 2.2 22.8 29.1 47.1 123.6 121.1 417.8
08/05 01:20 12.5 92 10.12 11.2 32 35 1022.8 2.2 22.9 29.2 47.3 124.4 122.0 420.8
08/05 01:10 12.6 92 10.18 11.3 33 41 1022.6 2.2 23.0 29.3 47.5 124.9 122.7 423.2
08/05 01:00 12.5 93 10.23 11.4 33 48 1022.6 2.2 23.1 29.4 47.8 125.6 123.6 426.2
08/05 00:50 12.6 93 10.29 11.5 32 37 1022.8 2.2 23.3 29.5 48.0 126.2 124.3 428.7
08/05 00:40 12.5 93 10.23 11.4 32 43 1023 2.2 23.1 29.4 47.8 125.7 123.6 426.4
08/05 00:30 12.5 93 10.23 11.4 33 44 1023 2.2 23.1 29.4 47.8 125.7 123.6 426.4
08/05 00:20 12.6 92 10.18 11.3 32 37 1022.9 2.2 23.0 29.3 47.5 124.9 122.7 423.3
08/05 00:10 12.4 93 10.16 11.3 35 41 1023 2.2 23.0 29.3 47.6 125.0 122.8 423.4
08/05 00:00 12.3 92 9.99 11 35 50 1023.2 2.2 22.6 29.1 46.9 123.2 120.5 415.5
07/05 23:50 12.3 91 9.88 10.9 35 43 1023.1 2 22.4 28.9 46.4 122.0 118.9 410.0
07/05 23:40 12.3 91 9.88 10.9 33 37 1023.1 2 22.4 28.9 46.4 122.0 118.9 410.0
07/05 23:30 12 93 9.91 10.9 32 43 1023.3 2 22.5 29.0 46.7 122.8 119.9 413.2
07/05 23:20 12.2 93 10.04 11.1 33 39 1023.4 2 22.7 29.2 47.2 124.0 121.4 418.6
07/05 23:10 12.2 93 10.04 11.1 30 37 1023.6 2 22.7 29.2 47.2 124.0 121.4 418.7
07/05 23:00 12.1 93 9.97 11 35 48 1024 2 22.6 29.1 47.0 123.4 120.6 415.8
07/05 22:50 12.3 91 9.88 10.9 32 37 1024 1.8 22.4 28.9 46.5 122.1 119.0 410.3
07/05 22:40 12.1 92 9.87 10.8 35 41 1023.9 1.8 22.4 29.0 46.5 122.2 119.2 410.8
07/05 22:30 12.1 93 9.97 11 28 39 1023.8 1.8 22.6 29.1 47.0 123.4 120.6 415.8
07/05 22:20 12.2 93 10.04 11.1 32 37 1023.9 1.8 22.7 29.2 47.2 124.1 121.5 418.8
07/05 22:10 12.1 92 9.87 10.8 30 35 1023.9 1.8 22.4 29.0 46.5 122.2 119.2 410.8
07/05 22:00 11.9 93 9.85 10.8 32 43 1024 1.8 22.4 29.0 46.6 122.3 119.2 410.9
07/05 21:50 11.8 92 9.68 10.5 26 32 1024 1.8 22.0 28.7 45.9 120.5 116.9 403.0
07/05 21:40 11.8 91 9.58 10.4 35 41 1023.8 1.6 21.8 28.6 45.4 119.4 115.5 398.0
07/05 21:30 11.9 89 9.43 10.1 32 43 1023.9 1.6 21.5 28.3 44.8 117.5 113.3 390.1
07/05 21:20 11.9 88 9.32 10 37 43 1023.6 1.6 21.2 28.1 44.3 116.2 111.7 384.6
07/05 21:10 11.7 91 9.52 10.3 32 37 1023.7 1.6 21.7 28.5 45.2 118.8 114.8 395.5
07/05 21:00 11.6 91 9.46 10.2 33 46 1023.8 1.6 21.5 28.4 45.0 118.3 114.1 393.0
07/05 20:50 11.5 90 9.3 9.9 32 37 1023.7 1.6 21.2 28.2 44.4 116.6 112.0 385.6
07/05 20:40 11.6 88 9.15 9.7 32 33 1023.7 1.6 20.9 27.9 43.7 114.7 109.7 377.7
07/05 20:30 11.4 88 9.03 9.5 33 44 1023.6 1.6 20.6 27.7 43.3 113.6 108.3 372.8
07/05 20:20 11.3 90 9.18 9.7 35 41 1023.6 1.6 20.9 28.0 44.0 115.5 110.6 380.7
07/05 20:10 11.1 92 9.27 9.9 28 37 1023.9 1.4 21.1 28.3 44.5 116.9 112.2 386.2
07/05 20:00 11.2 92 9.33 10 32 43 1024 1.4 21.3 28.3 44.7 117.4 112.9 388.7

Last Refresh: 08-May-2026 12:07:28

Bureau of Meteorology